Time;durP1;ratioP1;P1;durP2;ratioP2;P2;SDS_P1;SDS_P2;PMS_P1;PMS_P2;Temp;Humidity;BMP_temperature;BMP_pressure;BME280_temperature;BME280_humidity;BME280_pressure;Samples;Min_cycle;Max_cycle;Signal;HPM_P1;HPM_P2
2023/10/09 00:02:48;;;;;;;6.10;3.50;;;;;;;3.15;60.14;100972.85;131307;1254;108574;-77
2023/10/09 00:05:53;;;;;;;17.40;8.30;;;;;;;3.12;60.33;100975.46;131300;1264;106836;-76
2023/10/09 00:09:11;;;;;;;6.90;3.50;;;;;;;3.08;60.39;100978.85;131331;1248;106407;-77
2023/10/09 00:12:22;;;;;;;5.60;2.20;;;;;;;3.06;60.32;100976.02;131350;1247;108678;-76
2023/10/09 00:15:28;;;;;;;5.40;2.60;;;;;;;3.03;60.75;100968.98;131396;1254;107849;-76
2023/10/09 00:18:34;;;;;;;8.60;4.10;;;;;;;3.00;60.53;100972.63;131309;1267;106719;-76
2023/10/09 00:21:40;;;;;;;9.60;5.00;;;;;;;2.98;60.57;100977.33;131356;1248;108211;-76
2023/10/09 00:24:47;;;;;;;6.20;3.20;;;;;;;2.95;60.60;100972.40;131379;1252;106295;-76
2023/10/09 00:27:53;;;;;;;7.50;4.60;;;;;;;2.94;60.80;100968.91;131337;1254;108488;-77
2023/10/09 00:30:59;;;;;;;9.30;5.50;;;;;;;2.92;60.92;100962.37;131327;1248;108429;-77
2023/10/09 00:34:05;;;;;;;7.00;4.10;;;;;;;2.89;61.16;100956.41;131361;1251;108173;-77
2023/10/09 00:37:16;;;;;;;6.60;3.70;;;;;;;2.88;61.14;100950.50;131271;1248;106225;-77
2023/10/09 00:40:28;;;;;;;5.90;2.60;;;;;;;2.87;61.25;100940.89;131407;1247;107572;-76
2023/10/09 00:43:35;;;;;;;5.90;2.60;;;;;;;2.85;61.26;100934.13;131331;1254;107266;-77
2023/10/09 00:46:43;;;;;;;5.80;3.00;;;;;;;2.83;61.44;100930.36;131360;1254;107733;-77
2023/10/09 00:49:50;;;;;;;5.80;2.50;;;;;;;2.85;61.54;100919.92;131202;1250;107231;-76
2023/10/09 00:53:04;;;;;;;5.70;2.10;;;;;;;2.88;61.55;100912.86;131251;1249;106863;-77
2023/10/09 00:56:18;;;;;;;5.80;2.70;;;;;;;2.96;61.68;100909.77;131342;1261;108733;-77
2023/10/09 00:59:26;;;;;;;7.70;3.60;;;;;;;3.06;61.50;100898.11;131359;1261;107835;-75
2023/10/09 01:02:36;;;;;;;5.30;2.70;;;;;;;3.16;61.65;100901.98;131322;1254;107670;-77
2023/10/09 01:05:52;;;;;;;7.30;3.10;;;;;;;3.22;61.71;100896.20;131332;1248;108600;-76
2023/10/09 01:09:09;;;;;;;6.40;3.10;;;;;;;3.26;61.73;100899.94;131375;1248;108658;-76
2023/10/09 01:12:17;;;;;;;6.40;2.90;;;;;;;3.29;61.72;100896.60;131371;1253;108764;-77
2023/10/09 01:15:43;;;;;;;6.40;3.50;;;;;;;3.30;61.69;100906.38;131311;1253;107657;-76
2023/10/09 01:18:51;;;;;;;6.00;3.00;;;;;;;3.30;61.79;100909.39;131401;1253;107538;-75
2023/10/09 01:22:04;;;;;;;6.70;2.50;;;;;;;3.30;61.89;100903.75;131363;1247;107384;-77
2023/10/09 01:25:11;;;;;;;4.50;2.20;;;;;;;3.29;61.99;100892.21;131330;1252;108676;-76
2023/10/09 01:28:18;;;;;;;4.80;2.40;;;;;;;3.27;62.02;100878.47;131351;1247;108383;-76
2023/10/09 01:31:25;;;;;;;5.20;2.50;;;;;;;3.24;62.01;100872.30;131251;1253;106321;-77
2023/10/09 01:34:41;;;;;;;6.70;2.60;;;;;;;3.20;62.28;100881.48;131306;1253;106000;-76
2023/10/09 01:37:49;;;;;;;4.80;2.60;;;;;;;3.17;62.38;100891.02;131260;1264;108702;-76
2023/10/09 01:41:02;;;;;;;4.30;2.60;;;;;;;3.17;62.35;100886.97;131298;1253;106466;-77
2023/10/09 01:44:12;;;;;;;5.80;2.40;;;;;;;3.17;62.52;100889.44;131307;1251;106456;-77
2023/10/09 01:47:18;;;;;;;5.60;2.60;;;;;;;3.17;62.58;100891.55;131266;1253;107683;-75
2023/10/09 01:50:30;;;;;;;4.30;2.40;;;;;;;3.16;62.52;100883.31;131335;1253;106914;-75
2023/10/09 01:53:38;;;;;;;4.90;2.40;;;;;;;3.15;62.69;100881.27;131341;1253;106687;-78
2023/10/09 01:56:46;;;;;;;5.10;2.50;;;;;;;3.13;62.66;100885.92;131323;1250;107423;-75
2023/10/09 01:59:54;;;;;;;4.80;2.70;;;;;;;3.12;62.58;100879.64;131186;1247;108652;-75
2023/10/09 02:03:02;;;;;;;6.60;3.00;;;;;;;3.12;62.85;100876.00;131374;1250;107685;-78
2023/10/09 02:06:24;;;;;;;4.70;2.60;;;;;;;3.11;62.94;100869.35;131214;1254;108457;-76
2023/10/09 02:09:31;;;;;;;4.20;2.20;;;;;;;3.09;63.05;100865.79;131346;1264;108655;-76
2023/10/09 02:12:37;;;;;;;4.60;2.60;;;;;;;3.04;63.15;100868.89;131368;1254;106976;-75
2023/10/09 02:15:58;;;;;;;5.50;2.50;;;;;;;3.03;62.98;100864.39;131373;1252;108722;-76
2023/10/09 02:19:08;;;;;;;6.80;2.70;;;;;;;3.03;62.96;100865.63;131279;1250;107673;-76
2023/10/09 02:22:13;;;;;;;4.40;2.30;;;;;;;3.02;63.27;100863.56;131259;1251;109377;-77
2023/10/09 02:25:22;;;;;;;5.70;2.70;;;;;;;3.01;63.16;100869.59;131481;1252;106667;-76
2023/10/09 02:28:32;;;;;;;6.30;2.90;;;;;;;3.01;63.37;100865.20;131270;1253;107165;-77
2023/10/09 02:31:40;;;;;;;4.40;2.50;;;;;;;3.01;63.20;100862.41;131197;1252;107469;-79
2023/10/09 02:34:46;;;;;;;4.20;2.40;;;;;;;2.99;63.49;100859.17;131178;1251;106303;-77
2023/10/09 02:37:52;;;;;;;5.90;2.60;;;;;;;2.99;63.51;100863.08;131697;1251;108159;-76
2023/10/09 02:44:25;;;;;;;6.40;2.50;;;;;;;2.96;63.66;100852.14;135382;1247;108287;-79
2023/10/09 02:47:38;;;;;;;5.60;2.20;;;;;;;2.95;63.69;100848.33;135588;1247;106859;-79
2023/10/09 02:50:44;;;;;;;4.50;2.30;;;;;;;2.95;63.85;100844.81;134150;1247;108661;-79
2023/10/09 02:53:51;;;;;;;5.40;2.40;;;;;;;3.00;64.06;100839.95;131478;1247;106369;-78
2023/10/09 02:57:05;;;;;;;4.90;2.20;;;;;;;3.08;63.99;100839.86;131338;1248;108723;-81
2023/10/09 03:00:18;;;;;;;4.10;2.20;;;;;;;3.17;63.82;100841.59;131176;1253;107715;-79
2023/10/09 03:03:25;;;;;;;3.60;1.90;;;;;;;3.23;63.91;100834.39;131099;1250;107088;-79
2023/10/09 03:06:32;;;;;;;5.20;2.80;;;;;;;3.28;63.97;100830.73;131128;1255;107686;-79
2023/10/09 03:09:38;;;;;;;6.00;2.40;;;;;;;3.31;63.95;100832.82;131197;1253;107627;-80
2023/10/09 03:12:44;;;;;;;5.30;2.50;;;;;;;3.33;63.97;100835.19;131317;1250;108537;-79
2023/10/09 03:15:51;;;;;;;5.00;2.40;;;;;;;3.33;64.05;100843.65;131179;1251;107842;-79
2023/10/09 03:18:57;;;;;;;4.80;2.70;;;;;;;3.32;64.25;100842.61;131285;1247;106266;-79
2023/10/09 03:22:03;;;;;;;4.40;2.20;;;;;;;3.33;64.21;100843.64;131254;1263;107627;-79
2023/10/09 03:25:14;;;;;;;4.30;2.30;;;;;;;3.30;64.16;100834.33;131211;1253;107814;-80
2023/10/09 03:28:19;;;;;;;6.90;2.80;;;;;;;3.24;64.34;100826.23;131263;1248;107754;-78
2023/10/09 03:31:26;;;;;;;6.70;2.60;;;;;;;3.21;64.55;100826.77;131159;1247;108567;-77
2023/10/09 03:34:32;;;;;;;6.50;2.90;;;;;;;3.20;64.66;100832.62;131238;1253;106605;-78
2023/10/09 03:37:39;;;;;;;5.70;3.00;;;;;;;3.19;64.62;100824.83;131180;1251;108794;-79
2023/10/09 03:40:47;;;;;;;5.10;2.60;;;;;;;3.16;64.81;100824.60;131218;1247;107669;-79
2023/10/09 03:43:54;;;;;;;5.20;2.40;;;;;;;3.15;65.03;100826.20;131153;1251;107793;-79
2023/10/09 03:46:59;;;;;;;5.80;2.90;;;;;;;3.13;64.95;100829.34;131231;1264;106312;-79
2023/10/09 03:50:23;;;;;;;5.40;2.60;;;;;;;3.13;65.26;100828.48;131149;1247;107725;-79
2023/10/09 03:53:30;;;;;;;6.70;2.90;;;;;;;3.15;65.50;100821.83;131169;1253;105941;-79
2023/10/09 03:56:35;;;;;;;6.10;2.90;;;;;;;3.18;65.54;100814.30;131197;1253;107396;-79
2023/10/09 03:59:42;;;;;;;5.10;2.50;;;;;;;3.20;65.72;100800.82;131230;1247;107751;-79
2023/10/09 04:02:49;;;;;;;5.00;2.80;;;;;;;3.21;65.68;100792.30;131211;1253;106720;-78
2023/10/09 04:05:56;;;;;;;5.30;3.00;;;;;;;3.23;65.96;100790.79;131200;1253;106785;-78
2023/10/09 04:09:13;;;;;;;5.70;3.40;;;;;;;3.30;66.00;100788.92;131182;1253;107579;-78
2023/10/09 04:12:24;;;;;;;5.90;3.40;;;;;;;3.40;66.00;100789.73;131131;1253;107698;-78
2023/10/09 04:15:35;;;;;;;7.80;4.00;;;;;;;3.50;66.03;100783.65;131169;1249;108481;-78
2023/10/09 04:18:44;;;;;;;7.50;3.40;;;;;;;3.61;66.15;100776.33;131200;1251;107364;-78
2023/10/09 04:21:55;;;;;;;8.20;3.90;;;;;;;3.68;66.30;100770.27;131280;1254;106207;-75
2023/10/09 04:25:01;;;;;;;6.80;3.80;;;;;;;3.72;66.30;100765.61;131179;1251;106681;-74
2023/10/09 04:28:09;;;;;;;7.90;3.90;;;;;;;3.75;66.44;100759.47;131191;1253;106157;-74
2023/10/09 04:31:17;;;;;;;8.00;4.00;;;;;;;3.77;66.41;100753.00;131213;1252;108005;-73
2023/10/09 04:34:23;;;;;;;8.10;4.00;;;;;;;3.78;66.46;100743.23;131175;1248;106364;-75
2023/10/09 04:37:37;;;;;;;6.20;3.50;;;;;;;3.79;66.69;100734.02;131246;1248;108622;-75
2023/10/09 04:40:51;;;;;;;6.50;3.80;;;;;;;3.80;66.57;100726.03;131224;1248;107767;-74
2023/10/09 04:44:13;;;;;;;7.10;3.90;;;;;;;3.82;66.85;100715.89;131239;1251;106518;-74
2023/10/09 04:47:19;;;;;;;6.30;3.30;;;;;;;3.83;66.83;100710.73;131335;1253;105656;-74
2023/10/09 04:53:50;;;;;;;7.60;4.20;;;;;;;3.86;67.12;100703.29;131159;1253;106653;-70
2023/10/09 04:56:55;;;;;;;7.80;4.10;;;;;;;3.86;67.33;100695.73;131287;1253;106963;-71
2023/10/09 05:00:06;;;;;;;9.50;3.90;;;;;;;3.87;67.45;100688.83;131246;1252;106323;-75
2023/10/09 05:03:24;;;;;;;8.10;4.00;;;;;;;3.89;67.31;100680.90;131149;1253;105520;-74
2023/10/09 05:06:54;;;;;;;8.50;3.80;;;;;;;3.95;67.56;100661.70;131252;1251;107466;-74
2023/10/09 05:10:14;;;;;;;6.50;3.90;;;;;;;4.05;67.61;100656.98;131261;1247;107403;-74
2023/10/09 05:13:42;;;;;;;8.50;4.20;;;;;;;4.14;67.61;100660.15;131260;1251;108222;-74
2023/10/09 05:16:54;;;;;;;9.30;4.60;;;;;;;4.21;67.77;100670.02;131213;1251;107091;-73
2023/10/09 05:23:25;;;;;;;7.10;4.10;;;;;;;4.30;67.92;100663.63;131483;1248;107098;-74
2023/10/09 05:26:50;;;;;;;9.80;4.40;;;;;;;4.34;68.12;100667.04;131257;1248;106574;-74
2023/10/09 05:30:12;;;;;;;9.00;4.30;;;;;;;4.37;68.02;100669.33;131299;1248;107924;-73
2023/10/09 05:33:33;;;;;;;9.30;4.50;;;;;;;4.40;67.98;100668.97;131176;1253;107725;-74
2023/10/09 05:36:47;;;;;;;8.90;4.40;;;;;;;4.42;68.21;100664.45;131407;1254;107091;-74
2023/10/09 05:40:22;;;;;;;7.30;3.90;;;;;;;4.42;68.34;100665.88;131143;1253;107568;-76
2023/10/09 05:47:22;;;;;;;8.30;4.20;;;;;;;4.45;68.53;100651.90;131247;1253;108408;-73
2023/10/09 05:50:34;;;;;;;7.60;4.50;;;;;;;4.46;68.63;100650.95;131054;1253;107614;-74
2023/10/09 05:54:23;;;;;;;8.30;4.30;;;;;;;4.45;68.71;100651.53;131219;1253;106725;-74
2023/10/09 06:04:17;;;;;;;9.00;4.80;;;;;;;4.70;68.92;100647.73;131063;1251;106368;-73
2023/10/09 06:07:40;;;;;;;8.90;4.40;;;;;;;4.84;68.81;100647.80;131078;1253;106719;-76
2023/10/09 06:10:47;;;;;;;10.30;5.40;;;;;;;4.96;68.92;100643.95;131059;1251;106530;-76
2023/10/09 06:14:02;;;;;;;9.20;5.10;;;;;;;5.06;68.87;100639.90;131061;1253;107028;-74
2023/10/09 06:17:23;;;;;;;10.00;5.20;;;;;;;5.18;68.88;100640.52;131164;1250;107669;-74
2023/10/09 06:21:06;;;;;;;9.20;5.40;;;;;;;5.28;68.92;100637.66;131163;1251;107173;-74
2023/10/09 06:24:14;;;;;;;9.20;5.20;;;;;;;5.37;69.08;100641.61;131194;1250;109316;-74
2023/10/09 06:27:56;;;;;;;8.50;5.10;;;;;;;5.42;69.05;100639.17;131126;1253;107905;-74
2023/10/09 06:30:52;;;;;;;7.50;4.50;;;;;;;5.46;69.27;100642.52;131111;1253;108681;-74
2023/10/09 06:34:09;;;;;;;9.70;4.90;;;;;;;5.52;69.20;100639.64;131165;1250;108532;-74
2023/10/09 06:37:19;;;;;;;8.60;5.10;;;;;;;5.59;69.35;100644.45;131101;1250;107554;-74
2023/10/09 06:43:47;;;;;;;8.20;4.30;;;;;;;5.74;69.33;100643.54;131183;1253;108585;-74
2023/10/09 06:46:53;;;;;;;9.70;5.40;;;;;;;5.80;69.18;100647.45;131075;1253;105721;-74
2023/10/09 06:53:58;;;;;;;10.30;4.70;;;;;;;6.04;69.26;100639.56;131233;1253;106625;-74
2023/10/09 07:03:53;;;;;;;9.30;4.90;;;;;;;6.39;69.29;100622.82;130587;1257;106680;-77
2023/10/09 07:06:59;;;;;;;9.00;4.40;;;;;;;6.53;69.40;100624.61;131348;1247;107622;-75
2023/10/09 07:13:29;;;;;;;7.40;4.60;;;;;;;6.71;69.33;100627.27;131243;1265;106799;-76
2023/10/09 07:16:39;;;;;;;8.00;4.60;;;;;;;6.77;69.31;100627.55;131254;1253;108744;-76
2023/10/09 07:20:08;;;;;;;9.50;4.50;;;;;;;6.80;69.07;100623.20;131198;1254;107695;-76
2023/10/09 07:23:17;;;;;;;10.30;5.00;;;;;;;6.82;69.13;100619.14;131241;1253;106625;-76
2023/10/09 07:26:33;;;;;;;7.80;4.60;;;;;;;6.88;69.23;100615.31;131165;1248;106408;-75
2023/10/09 07:29:48;;;;;;;8.10;4.60;;;;;;;6.96;69.19;100610.08;131231;1247;106394;-75
2023/10/09 07:32:55;;;;;;;9.40;4.80;;;;;;;7.04;69.33;100609.13;131205;1253;108654;-75
2023/10/09 07:36:07;;;;;;;7.30;4.40;;;;;;;7.14;69.12;100606.90;131292;1253;107692;-75
2023/10/09 07:39:17;;;;;;;7.30;5.00;;;;;;;7.24;69.29;100602.38;131193;1251;107026;-75
2023/10/09 07:42:33;;;;;;;9.40;5.40;;;;;;;7.33;69.33;100598.45;131187;1252;108386;-75
2023/10/09 07:49:09;;;;;;;10.60;6.10;;;;;;;7.57;68.99;100594.80;131218;1251;107735;-76
2023/10/09 07:52:15;;;;;;;15.80;7.50;;;;;;;7.69;69.17;100592.61;131287;1247;106464;-75
2023/10/09 07:55:29;;;;;;;15.10;8.60;;;;;;;7.78;68.94;100590.59;131180;1252;108314;-76
2023/10/09 07:58:47;;;;;;;13.80;7.20;;;;;;;7.87;69.02;100590.55;131127;1252;107508;-75
2023/10/09 08:01:54;;;;;;;19.00;13.90;;;;;;;7.96;68.68;100591.08;131119;1252;107875;-75
2023/10/09 08:05:06;;;;;;;41.50;21.50;;;;;;;8.03;68.59;100595.59;131185;1253;106566;-76
2023/10/09 08:08:39;;;;;;;257.80;122.40;;;;;;;8.10;68.67;100597.16;131141;1253;107934;-75
2023/10/09 08:15:25;;;;;;;176.10;84.50;;;;;;;8.19;68.56;100588.73;131007;1268;107585;-75
2023/10/09 08:18:31;;;;;;;40.00;18.50;;;;;;;8.23;68.57;100582.38;131185;1266;107471;-75
2023/10/09 08:21:43;;;;;;;37.00;20.50;;;;;;;8.28;68.81;100579.16;131123;1251;107545;-75
2023/10/09 08:24:55;;;;;;;23.50;12.10;;;;;;;8.31;68.55;100583.30;131258;1253;106173;-75
2023/10/09 08:31:44;;;;;;;19.50;11.80;;;;;;;8.37;68.50;100590.58;131175;1250;106439;-75
2023/10/09 08:34:53;;;;;;;10.90;6.60;;;;;;;8.43;68.56;100583.27;131186;1251;106723;-75
2023/10/09 08:38:07;;;;;;;9.30;6.50;;;;;;;8.49;68.62;100575.27;131143;1250;107550;-75
2023/10/09 08:41:17;;;;;;;108.60;64.10;;;;;;;8.59;68.57;100586.48;131218;1252;106074;-74
2023/10/09 08:44:25;;;;;;;206.90;109.80;;;;;;;8.65;68.67;100593.97;131217;1253;107399;-75
2023/10/09 08:47:33;;;;;;;94.50;48.70;;;;;;;8.69;68.75;100593.79;131297;1253;107001;-76
2023/10/09 08:50:39;;;;;;;78.40;48.10;;;;;;;8.73;68.54;100595.73;131268;1248;107412;-75
2023/10/09 08:53:45;;;;;;;23.10;14.30;;;;;;;8.76;68.41;100595.47;131202;1254;107517;-75
2023/10/09 08:56:51;;;;;;;15.40;8.80;;;;;;;8.80;68.41;100604.02;131164;1253;107500;-75
2023/10/09 08:59:57;;;;;;;12.60;7.80;;;;;;;8.83;68.71;100604.05;131196;1252;105727;-75
2023/10/09 09:03:03;;;;;;;11.30;6.80;;;;;;;8.86;68.60;100599.19;131133;1251;109381;-76
2023/10/09 09:06:09;;;;;;;9.60;6.20;;;;;;;8.91;68.81;100597.41;131150;1261;107034;-76
2023/10/09 09:09:15;;;;;;;12.00;6.60;;;;;;;8.95;68.66;100597.50;131102;1254;106449;-75
2023/10/09 09:12:23;;;;;;;10.70;5.50;;;;;;;9.01;68.70;100592.45;131134;1253;106939;-76
2023/10/09 09:15:30;;;;;;;8.80;5.60;;;;;;;9.11;69.00;100588.85;131150;1252;106550;-74
2023/10/09 09:19:00;;;;;;;10.80;5.90;;;;;;;9.23;69.06;100590.48;131148;1253;107700;-76
2023/10/09 09:22:13;;;;;;;9.20;5.70;;;;;;;9.36;68.89;100588.81;131262;1253;107676;-75
2023/10/09 09:25:24;;;;;;;11.60;6.10;;;;;;;9.46;69.13;100577.98;131247;1253;106872;-75
2023/10/09 09:28:38;;;;;;;12.90;6.70;;;;;;;9.54;68.87;100576.30;131221;1253;108641;-74
2023/10/09 09:31:55;;;;;;;8.80;5.80;;;;;;;9.59;68.95;100569.46;131206;1252;106840;-73
2023/10/09 09:35:02;;;;;;;10.30;5.90;;;;;;;9.66;68.92;100562.08;131197;1253;106692;-74
2023/10/09 09:38:14;;;;;;;8.30;5.80;;;;;;;9.72;68.87;100553.41;131246;1263;106557;-75
2023/10/09 09:41:24;;;;;;;11.40;6.10;;;;;;;9.76;68.96;100548.96;131190;1251;108484;-75
2023/10/09 09:44:32;;;;;;;9.30;5.80;;;;;;;9.79;68.65;100540.70;131227;1253;106957;-75
2023/10/09 09:47:39;;;;;;;8.70;5.90;;;;;;;9.80;68.53;100540.39;131210;1253;106995;-74
2023/10/09 09:50:46;;;;;;;8.80;5.30;;;;;;;9.80;68.73;100545.02;131137;1250;106313;-75
2023/10/09 09:53:53;;;;;;;8.70;5.00;;;;;;;9.78;68.67;100548.02;131200;1253;108640;-75
2023/10/09 09:57:00;;;;;;;7.00;5.10;;;;;;;9.78;68.61;100545.71;131105;1253;180141;-75
2023/10/09 10:00:26;;;;;;;8.60;5.20;;;;;;;9.76;68.39;100545.71;131188;1247;107466;-74
2023/10/09 10:03:37;;;;;;;7.30;4.80;;;;;;;9.63;68.18;100545.16;131263;1253;108565;-74
2023/10/09 10:06:47;;;;;;;7.60;4.90;;;;;;;9.62;68.67;100539.58;131191;1263;106622;-75
2023/10/09 10:09:57;;;;;;;8.70;5.40;;;;;;;9.64;67.96;100538.88;131140;1251;106955;-76
2023/10/09 10:13:03;;;;;;;7.90;4.60;;;;;;;9.58;68.35;100533.33;131184;1247;108614;-75
2023/10/09 10:16:13;;;;;;;7.80;4.90;;;;;;;9.62;68.12;100527.25;131254;1252;106307;-74
2023/10/09 10:19:24;;;;;;;17.60;12.00;;;;;;;9.58;68.31;100529.65;131235;1247;106967;-75
2023/10/09 10:22:32;;;;;;;20.60;15.80;;;;;;;9.52;68.38;100520.59;131154;1253;107318;-75
2023/10/09 10:25:41;;;;;;;14.70;10.60;;;;;;;9.53;68.50;100509.55;131160;1253;107669;-75
2023/10/09 10:29:07;;;;;;;9.40;6.60;;;;;;;9.60;68.70;100499.61;131215;1254;106792;-74
2023/10/09 10:32:18;;;;;;;8.00;4.60;;;;;;;9.68;68.73;100490.38;131244;1253;106852;-74
2023/10/09 10:35:32;;;;;;;5.90;4.20;;;;;;;9.77;68.57;100482.44;131197;1252;106861;-74
2023/10/09 10:38:43;;;;;;;8.10;4.30;;;;;;;9.87;68.45;100481.33;131229;1248;108322;-74
2023/10/09 10:41:57;;;;;;;9.20;4.60;;;;;;;9.90;67.94;100479.96;131215;1253;107795;-75
2023/10/09 10:45:31;;;;;;;5.80;3.50;;;;;;;9.92;68.18;100471.79;131280;1250;107357;-74
2023/10/09 10:48:38;;;;;;;5.00;3.30;;;;;;;10.01;68.41;100465.05;131218;1251;106045;-75
2023/10/09 10:51:48;;;;;;;7.20;3.60;;;;;;;10.09;67.81;100466.09;131150;1253;106842;-75
2023/10/09 10:55:17;;;;;;;5.40;3.20;;;;;;;10.01;67.84;100465.38;131179;1253;107718;-74
2023/10/09 10:58:35;;;;;;;4.40;2.90;;;;;;;10.09;68.35;100464.84;131233;1254;107240;-75
2023/10/09 11:02:13;;;;;;;4.60;2.50;;;;;;;10.18;68.22;100469.33;131222;1251;107228;-75
2023/10/09 11:05:24;;;;;;;3.70;2.50;;;;;;;10.27;68.33;100472.27;131186;1253;106977;-74
2023/10/09 11:08:32;;;;;;;3.10;2.20;;;;;;;10.33;67.92;100463.69;131214;1247;109450;-75
2023/10/09 11:11:42;;;;;;;3.90;2.60;;;;;;;10.32;68.30;100471.58;131217;1254;107895;-74
2023/10/09 11:15:06;;;;;;;5.30;3.10;;;;;;;10.29;67.67;100475.21;131232;1263;106411;-74
2023/10/09 11:18:25;;;;;;;3.80;2.50;;;;;;;10.19;67.78;100475.48;131211;1254;106883;-73
2023/10/09 11:21:40;;;;;;;6.40;2.80;;;;;;;10.15;67.49;100473.91;131304;1253;107140;-75
2023/10/09 11:24:47;;;;;;;4.90;2.70;;;;;;;10.02;67.71;100475.70;131210;1253;107230;-74
2023/10/09 11:27:54;;;;;;;4.10;2.70;;;;;;;9.95;67.54;100473.79;131209;1253;107419;-77
2023/10/09 11:31:12;;;;;;;4.10;2.60;;;;;;;9.89;68.01;100473.46;131302;1253;107122;-75
2023/10/09 11:34:31;;;;;;;4.60;2.50;;;;;;;9.89;67.73;100465.56;131298;1253;106472;-74
2023/10/09 11:37:39;;;;;;;4.60;2.50;;;;;;;9.81;67.60;100464.98;131288;1251;107399;-74
2023/10/09 11:41:04;;;;;;;3.80;2.50;;;;;;;9.68;67.83;100465.90;131271;1253;106438;-75
2023/10/09 11:44:18;;;;;;;4.10;2.50;;;;;;;9.63;68.07;100461.48;131139;1253;107202;-76
2023/10/09 11:47:25;;;;;;;4.10;2.60;;;;;;;9.60;68.38;100460.20;131225;1253;106729;-76
2023/10/09 11:50:49;;;;;;;4.30;2.60;;;;;;;9.57;68.04;100458.86;131221;1253;107678;-77
2023/10/09 11:53:58;;;;;;;5.50;2.70;;;;;;;9.51;68.09;100453.97;131247;1252;108471;-76
2023/10/09 11:57:03;;;;;;;6.00;3.30;;;;;;;9.42;68.40;100458.09;131167;1253;106654;-76
2023/10/09 12:00:27;;;;;;;4.40;3.10;;;;;;;9.42;68.97;100456.27;131192;1251;107696;-77
2023/10/09 12:03:33;;;;;;;6.30;2.90;;;;;;;9.51;68.39;100450.89;131297;1253;108209;-76
2023/10/09 12:06:42;;;;;;;5.70;2.90;;;;;;;9.58;68.33;100448.84;131183;1254;109433;-76
2023/10/09 12:09:48;;;;;;;4.90;2.70;;;;;;;9.66;68.74;100448.48;131157;1254;108724;-75
2023/10/09 12:12:57;;;;;;;5.40;2.50;;;;;;;9.76;68.09;100447.54;131154;1253;108445;-76
2023/10/09 12:16:07;;;;;;;3.90;2.70;;;;;;;9.81;68.21;100444.52;131168;1260;107739;-75
2023/10/09 12:19:13;;;;;;;9.40;4.10;;;;;;;9.88;68.19;100443.73;131241;1256;106619;-76
2023/10/09 12:22:21;;;;;;;7.60;3.40;;;;;;;9.93;68.08;100436.55;131168;1254;106709;-76
2023/10/09 12:25:31;;;;;;;54.60;31.10;;;;;;;9.96;68.07;100423.42;131189;1253;108102;-75
2023/10/09 12:28:36;;;;;;;17.70;9.90;;;;;;;10.11;68.33;100421.11;131188;1253;107710;-76
2023/10/09 12:31:45;;;;;;;8.10;5.60;;;;;;;10.25;68.17;100426.01;131157;1253;105745;-76
2023/10/09 12:34:50;;;;;;;6.50;4.00;;;;;;;10.29;67.75;100427.66;131163;1248;106711;-75
2023/10/09 12:37:58;;;;;;;5.50;3.60;;;;;;;10.22;68.06;100424.48;131228;1261;108516;-76
2023/10/09 12:41:18;;;;;;;3.80;2.90;;;;;;;10.20;67.95;100425.56;131205;1253;106392;-76
2023/10/09 12:44:27;;;;;;;6.10;3.70;;;;;;;10.18;67.76;100428.40;131244;1253;107775;-76
2023/10/09 12:47:32;;;;;;;4.70;3.50;;;;;;;10.20;68.02;100431.52;131166;1254;106492;-75
2023/10/09 12:50:41;;;;;;;5.30;3.90;;;;;;;10.13;67.86;100435.83;131152;1253;106795;-76
2023/10/09 12:53:48;;;;;;;4.10;2.60;;;;;;;10.04;67.79;100439.22;131222;1253;107730;-76
2023/10/09 12:56:54;;;;;;;5.00;2.90;;;;;;;9.98;67.89;100438.88;131262;1253;107535;-76
2023/10/09 13:00:00;;;;;;;4.00;3.30;;;;;;;9.88;67.97;100435.54;131173;1254;107912;-76
2023/10/09 13:03:16;;;;;;;5.20;3.10;;;;;;;9.83;68.29;100430.86;131196;1260;107395;-75
2023/10/09 13:06:24;;;;;;;19.20;8.60;;;;;;;9.83;68.38;100428.53;131203;1251;106816;-76
2023/10/09 13:09:35;;;;;;;5.30;3.10;;;;;;;9.89;68.54;100428.55;131157;1257;106669;-76
2023/10/09 13:12:41;;;;;;;5.10;2.60;;;;;;;9.96;68.23;100430.52;131244;1253;107577;-75
2023/10/09 13:15:47;;;;;;;6.00;4.60;;;;;;;10.07;68.74;100426.84;131222;1257;107384;-76
2023/10/09 13:18:53;;;;;;;7.70;4.20;;;;;;;10.18;68.43;100424.16;131200;1254;107004;-78
2023/10/09 13:22:02;;;;;;;5.40;3.40;;;;;;;10.22;68.29;100420.21;131217;1261;108239;-76
2023/10/09 13:25:16;;;;;;;10.40;7.60;;;;;;;10.22;68.09;100415.07;131182;1251;107797;-76
2023/10/09 13:28:21;;;;;;;4.90;3.80;;;;;;;10.23;68.42;100408.39;131202;1254;107574;-75
2023/10/09 13:31:31;;;;;;;9.90;8.30;;;;;;;10.26;67.91;100405.17;131160;1253;106700;-75
2023/10/09 13:34:42;;;;;;;6.70;4.10;;;;;;;10.25;68.10;100395.77;131201;1253;107726;-75
2023/10/09 13:37:53;;;;;;;6.30;4.70;;;;;;;10.22;68.22;100392.14;131178;1253;107547;-76
2023/10/09 13:41:01;;;;;;;4.60;3.40;;;;;;;10.25;68.24;100379.57;131243;1252;108357;-75
2023/10/09 13:44:07;;;;;;;7.10;3.40;;;;;;;10.27;68.23;100374.17;131126;1254;106455;-75
2023/10/09 13:47:20;;;;;;;5.50;2.90;;;;;;;10.29;68.14;100364.79;131175;1253;108430;-76
2023/10/09 13:50:31;;;;;;;4.00;2.80;;;;;;;10.35;68.37;100355.36;131425;1254;107065;-76
2023/10/09 13:53:44;;;;;;;5.00;3.90;;;;;;;10.41;68.26;100362.07;131373;1252;108514;-76
2023/10/09 13:56:52;;;;;;;4.50;3.10;;;;;;;10.30;67.82;100355.91;131362;1261;108376;-76
2023/10/09 14:00:00;;;;;;;5.00;3.10;;;;;;;10.20;67.77;100351.96;131299;1252;108594;-76
2023/10/09 14:03:12;;;;;;;5.60;3.10;;;;;;;10.24;68.09;100350.39;131384;1253;108179;-77
2023/10/09 14:06:30;;;;;;;4.30;2.40;;;;;;;10.26;68.27;100353.80;131361;1254;107578;-77
2023/10/09 14:09:44;;;;;;;4.20;3.10;;;;;;;10.18;67.86;100358.56;131281;1254;107455;-77
2023/10/09 14:12:54;;;;;;;9.30;7.20;;;;;;;10.13;68.09;100356.73;131436;1253;106982;-77
2023/10/09 14:16:02;;;;;;;6.30;4.10;;;;;;;10.19;68.22;100354.77;131313;1252;106452;-76
2023/10/09 14:19:12;;;;;;;6.40;4.10;;;;;;;10.27;68.41;100358.48;131344;1253;106578;-76
2023/10/09 14:22:20;;;;;;;7.00;5.50;;;;;;;10.30;68.12;100362.58;131158;1251;107474;-76
2023/10/09 14:25:29;;;;;;;6.70;3.90;;;;;;;10.35;68.24;100367.80;131303;1252;108073;-75
2023/10/09 14:28:37;;;;;;;5.90;4.50;;;;;;;10.37;68.00;100361.03;131259;1254;106780;-75
2023/10/09 14:31:42;;;;;;;120.00;53.30;;;;;;;10.40;68.55;100358.14;131055;1254;107187;-75
2023/10/09 14:34:49;;;;;;;35.50;19.00;;;;;;;10.42;68.39;100357.17;131298;1253;106556;-77
2023/10/09 14:37:55;;;;;;;10.60;6.40;;;;;;;10.41;68.08;100366.02;131113;1261;106544;-76
2023/10/09 14:41:02;;;;;;;8.40;4.30;;;;;;;10.31;68.10;100361.33;131339;1263;107592;-75
2023/10/09 14:44:16;;;;;;;6.00;3.70;;;;;;;10.16;68.23;100359.08;131168;1253;107729;-75
2023/10/09 14:47:21;;;;;;;7.30;4.90;;;;;;;10.05;68.14;100359.67;131579;1253;108621;-76
2023/10/09 14:50:27;;;;;;;6.40;5.10;;;;;;;9.96;68.16;100362.08;132183;1253;106848;-75
2023/10/09 14:53:34;;;;;;;20.60;15.00;;;;;;;9.92;68.15;100360.06;131474;1253;107094;-74
2023/10/09 14:56:40;;;;;;;9.60;6.50;;;;;;;9.91;68.28;100360.88;131953;1252;106518;-77
2023/10/09 14:59:46;;;;;;;12.20;7.10;;;;;;;9.90;68.41;100362.40;131671;1254;107581;-76
2023/10/09 15:02:53;;;;;;;15.30;11.50;;;;;;;9.90;68.36;100368.42;131273;1263;106607;-75
2023/10/09 15:06:01;;;;;;;26.10;20.20;;;;;;;9.88;68.42;100368.36;131348;1252;107720;-76
2023/10/09 15:09:14;;;;;;;16.40;12.00;;;;;;;9.92;68.51;100366.25;131267;1254;106674;-75
2023/10/09 15:12:20;;;;;;;11.30;7.50;;;;;;;9.97;68.52;100365.77;131232;1252;106464;-76
2023/10/09 15:15:27;;;;;;;10.50;7.70;;;;;;;10.01;68.54;100371.58;131221;1253;106730;-76
2023/10/09 15:18:37;;;;;;;9.90;7.10;;;;;;;10.03;68.52;100371.56;131372;1261;107925;-75
2023/10/09 15:21:44;;;;;;;9.60;7.10;;;;;;;10.04;68.88;100381.24;131585;1248;106827;-76
2023/10/09 15:24:50;;;;;;;11.20;7.70;;;;;;;10.02;68.93;100392.48;131287;1253;107775;-76